sensor_id;sensor_type;location;lat;lon;timestamp;P1;durP1;ratioP1;P2;durP2;ratioP2
4244;SDS011;2136;48.502;9.194;2022-09-21T00:01:12;4.60;;;3.60;;
4244;SDS011;2136;48.502;9.194;2022-09-21T00:03:40;4.57;;;3.87;;
4244;SDS011;2136;48.502;9.194;2022-09-21T00:06:09;8.50;;;3.60;;
4244;SDS011;2136;48.502;9.194;2022-09-21T00:08:37;6.90;;;3.07;;
4244;SDS011;2136;48.502;9.194;2022-09-21T00:11:04;4.47;;;3.60;;
4244;SDS011;2136;48.502;9.194;2022-09-21T00:13:33;8.20;;;3.70;;
4244;SDS011;2136;48.502;9.194;2022-09-21T00:16:03;3.20;;;2.90;;
4244;SDS011;2136;48.502;9.194;2022-09-21T00:18:32;5.40;;;3.47;;
4244;SDS011;2136;48.502;9.194;2022-09-21T00:24:21;6.17;;;4.00;;
4244;SDS011;2136;48.502;9.194;2022-09-21T00:26:48;9.07;;;3.80;;
4244;SDS011;2136;48.502;9.194;2022-09-21T00:29:15;4.17;;;3.47;;
4244;SDS011;2136;48.502;9.194;2022-09-21T00:31:41;6.00;;;3.43;;
4244;SDS011;2136;48.502;9.194;2022-09-21T00:34:09;3.80;;;3.50;;
4244;SDS011;2136;48.502;9.194;2022-09-21T00:36:36;7.43;;;3.70;;
4244;SDS011;2136;48.502;9.194;2022-09-21T00:39:03;5.90;;;3.40;;
4244;SDS011;2136;48.502;9.194;2022-09-21T00:41:30;5.20;;;3.13;;
4244;SDS011;2136;48.502;9.194;2022-09-21T00:46:54;4.10;;;3.00;;
4244;SDS011;2136;48.502;9.194;2022-09-21T00:49:25;4.10;;;3.73;;
4244;SDS011;2136;48.502;9.194;2022-09-21T00:51:54;8.00;;;3.73;;
4244;SDS011;2136;48.502;9.194;2022-09-21T00:54:24;3.63;;;3.10;;
4244;SDS011;2136;48.502;9.194;2022-09-21T00:56:53;3.37;;;3.13;;
4244;SDS011;2136;48.502;9.194;2022-09-21T00:59:23;4.90;;;3.17;;
4244;SDS011;2136;48.502;9.194;2022-09-21T01:01:50;5.30;;;3.50;;
4244;SDS011;2136;48.502;9.194;2022-09-21T01:04:18;4.27;;;3.87;;
4244;SDS011;2136;48.502;9.194;2022-09-21T01:06:46;5.20;;;3.93;;
4244;SDS011;2136;48.502;9.194;2022-09-21T01:09:14;8.27;;;2.93;;
4244;SDS011;2136;48.502;9.194;2022-09-21T01:11:46;4.93;;;3.80;;
4244;SDS011;2136;48.502;9.194;2022-09-21T01:14:25;4.00;;;3.10;;
4244;SDS011;2136;48.502;9.194;2022-09-21T01:17:23;5.77;;;3.77;;
4244;SDS011;2136;48.502;9.194;2022-09-21T01:20:11;4.90;;;3.40;;
4244;SDS011;2136;48.502;9.194;2022-09-21T01:23:13;4.07;;;3.30;;
4244;SDS011;2136;48.502;9.194;2022-09-21T01:25:57;14.27;;;3.50;;
4244;SDS011;2136;48.502;9.194;2022-09-21T01:28:33;13.23;;;4.03;;
4244;SDS011;2136;48.502;9.194;2022-09-21T01:31:16;7.20;;;4.20;;
4244;SDS011;2136;48.502;9.194;2022-09-21T01:33:50;3.47;;;3.17;;
4244;SDS011;2136;48.502;9.194;2022-09-21T01:36:21;5.80;;;3.40;;
4244;SDS011;2136;48.502;9.194;2022-09-21T01:38:51;6.20;;;4.63;;
4244;SDS011;2136;48.502;9.194;2022-09-21T01:41:20;5.97;;;4.33;;
4244;SDS011;2136;48.502;9.194;2022-09-21T01:43:52;4.67;;;4.20;;
4244;SDS011;2136;48.502;9.194;2022-09-21T01:46:24;5.23;;;3.93;;
4244;SDS011;2136;48.502;9.194;2022-09-21T01:48:57;5.40;;;3.73;;
4244;SDS011;2136;48.502;9.194;2022-09-21T01:51:28;6.30;;;4.03;;
4244;SDS011;2136;48.502;9.194;2022-09-21T01:54:00;4.27;;;3.27;;
4244;SDS011;2136;48.502;9.194;2022-09-21T01:56:34;3.57;;;3.30;;
4244;SDS011;2136;48.502;9.194;2022-09-21T01:59:08;3.63;;;3.10;;
4244;SDS011;2136;48.502;9.194;2022-09-21T02:01:40;8.20;;;4.20;;
4244;SDS011;2136;48.502;9.194;2022-09-21T02:04:11;6.23;;;4.20;;
4244;SDS011;2136;48.502;9.194;2022-09-21T02:06:40;4.43;;;3.90;;
4244;SDS011;2136;48.502;9.194;2022-09-21T02:09:10;5.67;;;3.90;;
4244;SDS011;2136;48.502;9.194;2022-09-21T02:11:37;4.30;;;3.80;;
4244;SDS011;2136;48.502;9.194;2022-09-21T02:14:09;4.77;;;4.37;;
4244;SDS011;2136;48.502;9.194;2022-09-21T02:16:38;5.30;;;3.80;;
4244;SDS011;2136;48.502;9.194;2022-09-21T02:19:11;5.63;;;3.90;;
4244;SDS011;2136;48.502;9.194;2022-09-21T02:21:47;8.33;;;3.90;;
4244;SDS011;2136;48.502;9.194;2022-09-21T02:24:23;8.77;;;4.43;;
4244;SDS011;2136;48.502;9.194;2022-09-21T02:27:01;4.53;;;3.87;;
4244;SDS011;2136;48.502;9.194;2022-09-21T02:29:34;5.13;;;3.40;;
4244;SDS011;2136;48.502;9.194;2022-09-21T02:32:08;4.90;;;4.20;;
4244;SDS011;2136;48.502;9.194;2022-09-21T02:34:39;6.70;;;4.13;;
4244;SDS011;2136;48.502;9.194;2022-09-21T02:37:13;4.93;;;3.60;;
4244;SDS011;2136;48.502;9.194;2022-09-21T02:39:46;4.60;;;4.20;;
4244;SDS011;2136;48.502;9.194;2022-09-21T02:42:21;12.03;;;4.47;;
4244;SDS011;2136;48.502;9.194;2022-09-21T02:44:54;5.13;;;4.23;;
4244;SDS011;2136;48.502;9.194;2022-09-21T02:47:28;4.70;;;3.57;;
4244;SDS011;2136;48.502;9.194;2022-09-21T02:50:00;7.00;;;4.43;;
4244;SDS011;2136;48.502;9.194;2022-09-21T02:52:31;6.47;;;4.13;;
4244;SDS011;2136;48.502;9.194;2022-09-21T02:54:59;6.23;;;3.90;;
4244;SDS011;2136;48.502;9.194;2022-09-21T02:57:28;8.83;;;4.43;;
4244;SDS011;2136;48.502;9.194;2022-09-21T02:59:57;7.97;;;4.30;;
4244;SDS011;2136;48.502;9.194;2022-09-21T03:02:33;6.30;;;4.00;;
4244;SDS011;2136;48.502;9.194;2022-09-21T03:05:01;4.67;;;4.00;;
4244;SDS011;2136;48.502;9.194;2022-09-21T03:07:29;3.67;;;3.37;;
4244;SDS011;2136;48.502;9.194;2022-09-21T03:09:56;4.80;;;3.70;;
4244;SDS011;2136;48.502;9.194;2022-09-21T03:12:23;6.13;;;4.40;;
4244;SDS011;2136;48.502;9.194;2022-09-21T03:14:50;5.77;;;4.83;;
4244;SDS011;2136;48.502;9.194;2022-09-21T03:17:19;3.20;;;2.97;;
4244;SDS011;2136;48.502;9.194;2022-09-21T03:19:45;4.77;;;3.20;;
4244;SDS011;2136;48.502;9.194;2022-09-21T03:22:13;5.30;;;4.40;;
4244;SDS011;2136;48.502;9.194;2022-09-21T03:24:41;6.40;;;4.07;;
4244;SDS011;2136;48.502;9.194;2022-09-21T03:27:10;9.33;;;4.07;;
4244;SDS011;2136;48.502;9.194;2022-09-21T03:29:38;5.80;;;4.50;;
4244;SDS011;2136;48.502;9.194;2022-09-21T03:32:05;6.93;;;4.03;;
4244;SDS011;2136;48.502;9.194;2022-09-21T03:34:33;8.87;;;3.80;;
4244;SDS011;2136;48.502;9.194;2022-09-21T03:37:00;4.10;;;3.30;;
4244;SDS011;2136;48.502;9.194;2022-09-21T03:39:27;4.97;;;3.80;;
4244;SDS011;2136;48.502;9.194;2022-09-21T03:41:54;6.20;;;3.07;;
4244;SDS011;2136;48.502;9.194;2022-09-21T03:44:21;4.50;;;3.40;;
4244;SDS011;2136;48.502;9.194;2022-09-21T03:46:49;6.50;;;3.87;;
4244;SDS011;2136;48.502;9.194;2022-09-21T03:49:16;3.90;;;3.50;;
4244;SDS011;2136;48.502;9.194;2022-09-21T03:51:44;7.73;;;3.37;;
4244;SDS011;2136;48.502;9.194;2022-09-21T03:54:11;4.80;;;3.63;;
4244;SDS011;2136;48.502;9.194;2022-09-21T03:56:38;3.73;;;3.20;;
4244;SDS011;2136;48.502;9.194;2022-09-21T03:59:05;6.20;;;4.20;;
4244;SDS011;2136;48.502;9.194;2022-09-21T04:01:31;6.17;;;3.83;;
4244;SDS011;2136;48.502;9.194;2022-09-21T04:03:58;7.23;;;3.80;;
4244;SDS011;2136;48.502;9.194;2022-09-21T04:06:25;6.90;;;4.60;;
4244;SDS011;2136;48.502;9.194;2022-09-21T04:08:53;5.25;;;4.50;;
4244;SDS011;2136;48.502;9.194;2022-09-21T04:11:21;4.50;;;3.97;;
4244;SDS011;2136;48.502;9.194;2022-09-21T04:13:48;4.67;;;3.93;;
4244;SDS011;2136;48.502;9.194;2022-09-21T04:16:17;8.03;;;3.77;;
4244;SDS011;2136;48.502;9.194;2022-09-21T04:18:43;4.40;;;3.90;;
4244;SDS011;2136;48.502;9.194;2022-09-21T04:21:14;5.83;;;3.97;;
4244;SDS011;2136;48.502;9.194;2022-09-21T04:23:41;6.10;;;3.70;;
4244;SDS011;2136;48.502;9.194;2022-09-21T04:26:17;5.20;;;4.70;;
4244;SDS011;2136;48.502;9.194;2022-09-21T04:28:45;9.23;;;6.60;;
4244;SDS011;2136;48.502;9.194;2022-09-21T04:31:12;6.47;;;5.70;;
4244;SDS011;2136;48.502;9.194;2022-09-21T04:33:39;6.33;;;4.90;;
4244;SDS011;2136;48.502;9.194;2022-09-21T04:36:06;4.83;;;4.27;;
4244;SDS011;2136;48.502;9.194;2022-09-21T04:38:33;4.60;;;4.20;;
4244;SDS011;2136;48.502;9.194;2022-09-21T04:41:00;4.20;;;3.90;;
4244;SDS011;2136;48.502;9.194;2022-09-21T04:43:28;4.27;;;3.87;;
4244;SDS011;2136;48.502;9.194;2022-09-21T04:45:55;6.03;;;4.20;;
4244;SDS011;2136;48.502;9.194;2022-09-21T04:48:22;4.70;;;4.30;;
4244;SDS011;2136;48.502;9.194;2022-09-21T04:50:49;4.60;;;4.20;;
4244;SDS011;2136;48.502;9.194;2022-09-21T04:53:16;6.50;;;4.57;;
4244;SDS011;2136;48.502;9.194;2022-09-21T04:55:43;4.20;;;3.90;;
4244;SDS011;2136;48.502;9.194;2022-09-21T04:58:10;5.10;;;4.43;;
4244;SDS011;2136;48.502;9.194;2022-09-21T05:00:38;6.72;;;4.70;;
4244;SDS011;2136;48.502;9.194;2022-09-21T05:03:05;7.13;;;4.60;;
4244;SDS011;2136;48.502;9.194;2022-09-21T05:05:32;9.87;;;5.07;;
4244;SDS011;2136;48.502;9.194;2022-09-21T05:07:59;5.77;;;4.60;;
4244;SDS011;2136;48.502;9.194;2022-09-21T05:10:26;7.70;;;4.37;;
4244;SDS011;2136;48.502;9.194;2022-09-21T05:12:52;4.47;;;4.07;;
4244;SDS011;2136;48.502;9.194;2022-09-21T05:15:18;6.87;;;4.00;;
4244;SDS011;2136;48.502;9.194;2022-09-21T05:17:47;8.73;;;5.27;;
4244;SDS011;2136;48.502;9.194;2022-09-21T05:20:14;4.90;;;4.50;;
4244;SDS011;2136;48.502;9.194;2022-09-21T05:22:41;7.37;;;5.30;;
4244;SDS011;2136;48.502;9.194;2022-09-21T05:25:08;6.80;;;6.00;;
4244;SDS011;2136;48.502;9.194;2022-09-21T05:27:35;6.40;;;5.43;;
4244;SDS011;2136;48.502;9.194;2022-09-21T05:30:02;8.27;;;6.17;;
4244;SDS011;2136;48.502;9.194;2022-09-21T05:32:35;10.23;;;6.40;;
4244;SDS011;2136;48.502;9.194;2022-09-21T05:35:14;7.70;;;5.73;;
4244;SDS011;2136;48.502;9.194;2022-09-21T05:37:51;10.57;;;7.90;;
4244;SDS011;2136;48.502;9.194;2022-09-21T05:40:22;8.87;;;6.97;;
4244;SDS011;2136;48.502;9.194;2022-09-21T05:42:49;9.77;;;5.70;;
4244;SDS011;2136;48.502;9.194;2022-09-21T05:45:17;6.63;;;4.90;;
4244;SDS011;2136;48.502;9.194;2022-09-21T05:47:54;4.80;;;4.30;;
4244;SDS011;2136;48.502;9.194;2022-09-21T05:50:32;6.13;;;5.17;;
4244;SDS011;2136;48.502;9.194;2022-09-21T05:53:24;4.47;;;4.07;;
4244;SDS011;2136;48.502;9.194;2022-09-21T05:56:11;22.57;;;5.20;;
4244;SDS011;2136;48.502;9.194;2022-09-21T05:58:50;5.77;;;4.70;;
4244;SDS011;2136;48.502;9.194;2022-09-21T06:01:26;5.53;;;4.90;;
4244;SDS011;2136;48.502;9.194;2022-09-21T06:04:03;7.63;;;5.90;;
4244;SDS011;2136;48.502;9.194;2022-09-21T06:06:31;13.03;;;7.00;;
4244;SDS011;2136;48.502;9.194;2022-09-21T06:08:58;11.53;;;6.70;;
4244;SDS011;2136;48.502;9.194;2022-09-21T06:11:25;7.10;;;4.77;;
4244;SDS011;2136;48.502;9.194;2022-09-21T06:13:51;7.30;;;4.37;;
4244;SDS011;2136;48.502;9.194;2022-09-21T06:16:18;4.87;;;4.47;;
4244;SDS011;2136;48.502;9.194;2022-09-21T06:18:45;6.03;;;3.60;;
4244;SDS011;2136;48.502;9.194;2022-09-21T06:21:12;3.10;;;2.80;;
4244;SDS011;2136;48.502;9.194;2022-09-21T06:23:40;4.67;;;3.73;;
4244;SDS011;2136;48.502;9.194;2022-09-21T06:26:07;2.97;;;2.70;;
4244;SDS011;2136;48.502;9.194;2022-09-21T06:28:34;3.43;;;3.13;;
4244;SDS011;2136;48.502;9.194;2022-09-21T06:31:00;4.30;;;3.60;;
4244;SDS011;2136;48.502;9.194;2022-09-21T06:33:27;4.10;;;3.53;;
4244;SDS011;2136;48.502;9.194;2022-09-21T06:35:54;3.80;;;3.30;;
4244;SDS011;2136;48.502;9.194;2022-09-21T06:38:23;5.87;;;4.33;;
4244;SDS011;2136;48.502;9.194;2022-09-21T06:40:52;5.47;;;4.50;;
4244;SDS011;2136;48.502;9.194;2022-09-21T06:43:19;5.40;;;4.53;;
4244;SDS011;2136;48.502;9.194;2022-09-21T06:45:51;6.13;;;4.60;;
4244;SDS011;2136;48.502;9.194;2022-09-21T06:48:19;7.73;;;4.90;;
4244;SDS011;2136;48.502;9.194;2022-09-21T06:50:46;6.00;;;4.20;;
4244;SDS011;2136;48.502;9.194;2022-09-21T06:53:13;4.60;;;3.70;;
4244;SDS011;2136;48.502;9.194;2022-09-21T06:55:41;4.97;;;4.57;;
4244;SDS011;2136;48.502;9.194;2022-09-21T06:58:10;5.67;;;4.47;;
4244;SDS011;2136;48.502;9.194;2022-09-21T07:00:36;4.83;;;4.00;;
4244;SDS011;2136;48.502;9.194;2022-09-21T07:03:03;4.70;;;4.30;;
4244;SDS011;2136;48.502;9.194;2022-09-21T07:05:30;4.63;;;4.20;;
4244;SDS011;2136;48.502;9.194;2022-09-21T07:07:57;4.70;;;4.23;;
4244;SDS011;2136;48.502;9.194;2022-09-21T07:10:24;5.03;;;4.50;;
4244;SDS011;2136;48.502;9.194;2022-09-21T07:12:51;6.30;;;5.70;;
4244;SDS011;2136;48.502;9.194;2022-09-21T07:15:19;6.67;;;5.23;;
4244;SDS011;2136;48.502;9.194;2022-09-21T07:17:46;5.90;;;4.53;;
4244;SDS011;2136;48.502;9.194;2022-09-21T07:20:13;5.53;;;4.90;;
4244;SDS011;2136;48.502;9.194;2022-09-21T07:22:40;6.73;;;4.70;;
4244;SDS011;2136;48.502;9.194;2022-09-21T07:25:07;7.93;;;4.60;;
4244;SDS011;2136;48.502;9.194;2022-09-21T07:27:35;7.57;;;6.17;;
4244;SDS011;2136;48.502;9.194;2022-09-21T07:30:02;8.30;;;5.93;;
4244;SDS011;2136;48.502;9.194;2022-09-21T07:32:31;6.70;;;5.40;;
4244;SDS011;2136;48.502;9.194;2022-09-21T07:34:59;6.17;;;5.50;;
4244;SDS011;2136;48.502;9.194;2022-09-21T07:37:25;7.33;;;5.47;;
4244;SDS011;2136;48.502;9.194;2022-09-21T07:39:53;11.57;;;5.07;;
4244;SDS011;2136;48.502;9.194;2022-09-21T07:42:20;4.47;;;4.07;;
4244;SDS011;2136;48.502;9.194;2022-09-21T07:44:48;7.73;;;5.30;;
4244;SDS011;2136;48.502;9.194;2022-09-21T07:47:15;9.20;;;5.17;;
4244;SDS011;2136;48.502;9.194;2022-09-21T07:49:43;5.07;;;4.57;;
4244;SDS011;2136;48.502;9.194;2022-09-21T07:52:11;11.17;;;5.17;;
4244;SDS011;2136;48.502;9.194;2022-09-21T07:54:38;7.73;;;4.90;;
4244;SDS011;2136;48.502;9.194;2022-09-21T07:57:05;7.03;;;5.10;;
4244;SDS011;2136;48.502;9.194;2022-09-21T07:59:49;9.13;;;4.00;;
4244;SDS011;2136;48.502;9.194;2022-09-21T08:02:16;5.90;;;4.40;;
4244;SDS011;2136;48.502;9.194;2022-09-21T08:04:44;5.10;;;3.37;;
4244;SDS011;2136;48.502;9.194;2022-09-21T08:07:10;6.77;;;3.80;;
4244;SDS011;2136;48.502;9.194;2022-09-21T08:09:37;6.17;;;3.73;;
4244;SDS011;2136;48.502;9.194;2022-09-21T08:12:04;12.17;;;4.60;;
4244;SDS011;2136;48.502;9.194;2022-09-21T08:14:31;7.13;;;4.50;;
4244;SDS011;2136;48.502;9.194;2022-09-21T08:16:58;5.17;;;4.20;;
4244;SDS011;2136;48.502;9.194;2022-09-21T08:19:25;5.60;;;4.60;;
4244;SDS011;2136;48.502;9.194;2022-09-21T08:21:54;8.13;;;4.40;;
4244;SDS011;2136;48.502;9.194;2022-09-21T08:24:20;7.20;;;3.50;;
4244;SDS011;2136;48.502;9.194;2022-09-21T08:26:47;18.57;;;3.87;;
4244;SDS011;2136;48.502;9.194;2022-09-21T08:29:16;7.23;;;4.10;;
4244;SDS011;2136;48.502;9.194;2022-09-21T08:31:42;4.40;;;4.00;;
4244;SDS011;2136;48.502;9.194;2022-09-21T08:34:10;4.40;;;3.47;;
4244;SDS011;2136;48.502;9.194;2022-09-21T08:36:37;4.70;;;4.10;;
4244;SDS011;2136;48.502;9.194;2022-09-21T08:39:06;5.67;;;3.87;;
4244;SDS011;2136;48.502;9.194;2022-09-21T08:41:40;7.47;;;3.60;;
4244;SDS011;2136;48.502;9.194;2022-09-21T08:44:17;5.40;;;4.27;;
4244;SDS011;2136;48.502;9.194;2022-09-21T08:46:50;7.70;;;3.80;;
4244;SDS011;2136;48.502;9.194;2022-09-21T08:49:26;7.30;;;4.40;;
4244;SDS011;2136;48.502;9.194;2022-09-21T08:51:55;4.23;;;3.30;;
4244;SDS011;2136;48.502;9.194;2022-09-21T08:54:27;4.00;;;2.60;;
4244;SDS011;2136;48.502;9.194;2022-09-21T08:57:01;3.43;;;3.10;;
4244;SDS011;2136;48.502;9.194;2022-09-21T08:59:28;5.57;;;3.00;;
4244;SDS011;2136;48.502;9.194;2022-09-21T09:01:56;8.83;;;3.00;;
4244;SDS011;2136;48.502;9.194;2022-09-21T09:04:37;6.17;;;2.47;;
4244;SDS011;2136;48.502;9.194;2022-09-21T09:07:17;3.07;;;2.77;;
4244;SDS011;2136;48.502;9.194;2022-09-21T09:10:02;3.13;;;2.37;;
4244;SDS011;2136;48.502;9.194;2022-09-21T09:12:40;3.40;;;2.80;;
4244;SDS011;2136;48.502;9.194;2022-09-21T09:15:22;3.33;;;2.93;;
4244;SDS011;2136;48.502;9.194;2022-09-21T09:18:07;3.93;;;2.40;;
4244;SDS011;2136;48.502;9.194;2022-09-21T09:20:38;3.53;;;2.77;;
4244;SDS011;2136;48.502;9.194;2022-09-21T09:23:09;5.20;;;2.87;;
4244;SDS011;2136;48.502;9.194;2022-09-21T09:25:42;3.73;;;2.20;;
4244;SDS011;2136;48.502;9.194;2022-09-21T09:28:16;3.13;;;1.97;;
4244;SDS011;2136;48.502;9.194;2022-09-21T09:30:51;1.80;;;1.70;;
4244;SDS011;2136;48.502;9.194;2022-09-21T09:33:24;2.57;;;2.10;;
4244;SDS011;2136;48.502;9.194;2022-09-21T09:35:54;2.17;;;1.83;;
4244;SDS011;2136;48.502;9.194;2022-09-21T09:38:27;2.47;;;2.03;;
4244;SDS011;2136;48.502;9.194;2022-09-21T09:44:22;2.90;;;2.70;;
4244;SDS011;2136;48.502;9.194;2022-09-21T09:47:06;2.40;;;1.90;;
4244;SDS011;2136;48.502;9.194;2022-09-21T09:49:45;2.40;;;1.80;;
4244;SDS011;2136;48.502;9.194;2022-09-21T09:52:21;1.60;;;1.50;;
4244;SDS011;2136;48.502;9.194;2022-09-21T09:54:48;2.47;;;1.80;;
4244;SDS011;2136;48.502;9.194;2022-09-21T09:57:15;2.13;;;1.80;;
4244;SDS011;2136;48.502;9.194;2022-09-21T09:59:53;3.50;;;1.83;;
4244;SDS011;2136;48.502;9.194;2022-09-21T10:02:24;3.47;;;1.50;;
4244;SDS011;2136;48.502;9.194;2022-09-21T10:04:55;1.70;;;1.60;;
4244;SDS011;2136;48.502;9.194;2022-09-21T10:07:37;2.60;;;1.60;;
4244;SDS011;2136;48.502;9.194;2022-09-21T10:12:56;1.90;;;1.40;;
4244;SDS011;2136;48.502;9.194;2022-09-21T10:15:31;1.70;;;1.53;;
4244;SDS011;2136;48.502;9.194;2022-09-21T10:18:00;3.43;;;1.80;;
4244;SDS011;2136;48.502;9.194;2022-09-21T10:20:31;1.90;;;1.70;;
4244;SDS011;2136;48.502;9.194;2022-09-21T10:22:59;4.37;;;1.40;;
4244;SDS011;2136;48.502;9.194;2022-09-21T10:25:26;2.73;;;1.70;;
4244;SDS011;2136;48.502;9.194;2022-09-21T10:27:52;1.80;;;1.67;;
4244;SDS011;2136;48.502;9.194;2022-09-21T10:30:32;1.60;;;1.50;;
4244;SDS011;2136;48.502;9.194;2022-09-21T10:33:00;3.77;;;1.87;;
4244;SDS011;2136;48.502;9.194;2022-09-21T10:35:27;3.67;;;1.73;;
4244;SDS011;2136;48.502;9.194;2022-09-21T10:38:10;1.60;;;1.50;;
4244;SDS011;2136;48.502;9.194;2022-09-21T10:40:41;1.43;;;1.33;;
4244;SDS011;2136;48.502;9.194;2022-09-21T10:43:19;9.40;;;1.33;;
4244;SDS011;2136;48.502;9.194;2022-09-21T10:45:54;4.20;;;2.20;;
4244;SDS011;2136;48.502;9.194;2022-09-21T10:48:23;2.00;;;1.80;;
4244;SDS011;2136;48.502;9.194;2022-09-21T10:50:51;5.23;;;2.17;;
4244;SDS011;2136;48.502;9.194;2022-09-21T10:53:21;3.03;;;1.70;;
4244;SDS011;2136;48.502;9.194;2022-09-21T10:55:52;1.60;;;1.50;;
4244;SDS011;2136;48.502;9.194;2022-09-21T10:58:23;1.90;;;1.53;;
4244;SDS011;2136;48.502;9.194;2022-09-21T11:00:50;2.50;;;1.80;;
4244;SDS011;2136;48.502;9.194;2022-09-21T11:03:30;1.63;;;1.47;;
4244;SDS011;2136;48.502;9.194;2022-09-21T11:06:07;1.10;;;1.00;;
4244;SDS011;2136;48.502;9.194;2022-09-21T11:08:40;2.73;;;1.47;;
4244;SDS011;2136;48.502;9.194;2022-09-21T11:11:24;1.50;;;0.97;;
4244;SDS011;2136;48.502;9.194;2022-09-21T11:14:05;1.73;;;1.10;;
4244;SDS011;2136;48.502;9.194;2022-09-21T11:16:39;3.50;;;1.20;;
4244;SDS011;2136;48.502;9.194;2022-09-21T11:19:13;6.90;;;0.90;;
4244;SDS011;2136;48.502;9.194;2022-09-21T11:21:47;1.87;;;0.87;;
4244;SDS011;2136;48.502;9.194;2022-09-21T11:24:22;1.93;;;1.10;;
4244;SDS011;2136;48.502;9.194;2022-09-21T11:26:55;2.57;;;1.03;;
4244;SDS011;2136;48.502;9.194;2022-09-21T11:29:29;2.63;;;1.33;;
4244;SDS011;2136;48.502;9.194;2022-09-21T11:32:05;1.10;;;1.00;;
4244;SDS011;2136;48.502;9.194;2022-09-21T11:34:48;2.33;;;1.00;;
4244;SDS011;2136;48.502;9.194;2022-09-21T11:37:29;0.70;;;0.70;;
4244;SDS011;2136;48.502;9.194;2022-09-21T11:40:15;0.90;;;0.90;;
4244;SDS011;2136;48.502;9.194;2022-09-21T11:42:58;2.00;;;1.10;;
4244;SDS011;2136;48.502;9.194;2022-09-21T11:45:41;2.10;;;0.93;;
4244;SDS011;2136;48.502;9.194;2022-09-21T11:48:17;2.60;;;0.90;;
4244;SDS011;2136;48.502;9.194;2022-09-21T11:50:54;0.80;;;0.80;;
4244;SDS011;2136;48.502;9.194;2022-09-21T11:53:31;2.57;;;0.93;;
4244;SDS011;2136;48.502;9.194;2022-09-21T11:56:11;1.30;;;1.00;;
4244;SDS011;2136;48.502;9.194;2022-09-21T11:58:57;4.77;;;1.00;;
4244;SDS011;2136;48.502;9.194;2022-09-21T12:01:41;1.73;;;1.00;;
4244;SDS011;2136;48.502;9.194;2022-09-21T12:04:28;1.50;;;0.73;;
4244;SDS011;2136;48.502;9.194;2022-09-21T12:07:13;1.97;;;0.87;;
4244;SDS011;2136;48.502;9.194;2022-09-21T12:10:08;2.80;;;0.80;;
4244;SDS011;2136;48.502;9.194;2022-09-21T12:12:56;1.70;;;1.07;;
4244;SDS011;2136;48.502;9.194;2022-09-21T12:15:32;0.93;;;0.93;;
4244;SDS011;2136;48.502;9.194;2022-09-21T12:18:06;1.30;;;0.77;;
4244;SDS011;2136;48.502;9.194;2022-09-21T12:20:38;0.83;;;0.83;;
4244;SDS011;2136;48.502;9.194;2022-09-21T12:23:15;10.70;;;1.03;;
4244;SDS011;2136;48.502;9.194;2022-09-21T12:25:45;1.50;;;0.77;;
4244;SDS011;2136;48.502;9.194;2022-09-21T12:28:17;0.80;;;0.80;;
4244;SDS011;2136;48.502;9.194;2022-09-21T12:30:49;1.53;;;0.80;;
4244;SDS011;2136;48.502;9.194;2022-09-21T12:33:22;2.03;;;0.83;;
4244;SDS011;2136;48.502;9.194;2022-09-21T12:35:57;4.53;;;0.90;;
4244;SDS011;2136;48.502;9.194;2022-09-21T12:38:32;1.07;;;0.90;;
4244;SDS011;2136;48.502;9.194;2022-09-21T12:41:03;0.70;;;0.70;;
4244;SDS011;2136;48.502;9.194;2022-09-21T12:43:37;5.40;;;0.97;;
4244;SDS011;2136;48.502;9.194;2022-09-21T12:46:09;1.43;;;0.70;;
4244;SDS011;2136;48.502;9.194;2022-09-21T12:48:42;1.23;;;0.90;;
4244;SDS011;2136;48.502;9.194;2022-09-21T12:51:11;2.83;;;0.87;;
4244;SDS011;2136;48.502;9.194;2022-09-21T12:53:45;6.83;;;0.87;;
4244;SDS011;2136;48.502;9.194;2022-09-21T12:56:16;2.73;;;0.87;;
4244;SDS011;2136;48.502;9.194;2022-09-21T13:01:49;1.77;;;0.90;;
4244;SDS011;2136;48.502;9.194;2022-09-21T13:07:27;0.80;;;0.80;;
4244;SDS011;2136;48.502;9.194;2022-09-21T13:10:29;2.40;;;1.13;;
4244;SDS011;2136;48.502;9.194;2022-09-21T13:13:16;3.37;;;1.10;;
4244;SDS011;2136;48.502;9.194;2022-09-21T13:15:47;0.90;;;0.80;;
4244;SDS011;2136;48.502;9.194;2022-09-21T13:18:17;0.93;;;0.80;;
4244;SDS011;2136;48.502;9.194;2022-09-21T13:20:47;1.03;;;1.03;;
4244;SDS011;2136;48.502;9.194;2022-09-21T13:23:17;0.80;;;0.70;;
4244;SDS011;2136;48.502;9.194;2022-09-21T13:25:59;1.10;;;1.00;;
4244;SDS011;2136;48.502;9.194;2022-09-21T13:28:42;1.00;;;1.00;;
4244;SDS011;2136;48.502;9.194;2022-09-21T13:31:28;0.80;;;0.80;;
4244;SDS011;2136;48.502;9.194;2022-09-21T13:34:22;0.80;;;0.80;;
4244;SDS011;2136;48.502;9.194;2022-09-21T13:37:13;1.10;;;1.10;;
4244;SDS011;2136;48.502;9.194;2022-09-21T13:43:20;1.57;;;0.73;;
4244;SDS011;2136;48.502;9.194;2022-09-21T13:45:53;1.30;;;0.80;;
4244;SDS011;2136;48.502;9.194;2022-09-21T13:48:21;0.70;;;0.70;;
4244;SDS011;2136;48.502;9.194;2022-09-21T13:50:55;0.70;;;0.70;;
4244;SDS011;2136;48.502;9.194;2022-09-21T13:53:24;1.33;;;0.60;;
4244;SDS011;2136;48.502;9.194;2022-09-21T13:55:59;0.77;;;0.77;;
4244;SDS011;2136;48.502;9.194;2022-09-21T13:58:34;0.63;;;0.63;;
4244;SDS011;2136;48.502;9.194;2022-09-21T14:01:11;1.13;;;0.83;;
4244;SDS011;2136;48.502;9.194;2022-09-21T14:03:41;0.70;;;0.70;;
4244;SDS011;2136;48.502;9.194;2022-09-21T14:06:12;0.93;;;0.83;;
4244;SDS011;2136;48.502;9.194;2022-09-21T14:08:44;0.90;;;0.90;;
4244;SDS011;2136;48.502;9.194;2022-09-21T14:11:15;1.00;;;0.90;;
4244;SDS011;2136;48.502;9.194;2022-09-21T14:13:59;1.30;;;1.20;;
4244;SDS011;2136;48.502;9.194;2022-09-21T14:16:48;1.10;;;1.00;;
4244;SDS011;2136;48.502;9.194;2022-09-21T14:22:42;0.70;;;0.70;;
4244;SDS011;2136;48.502;9.194;2022-09-21T14:25:23;1.07;;;0.97;;
4244;SDS011;2136;48.502;9.194;2022-09-21T14:28:02;1.50;;;1.40;;
4244;SDS011;2136;48.502;9.194;2022-09-21T14:30:37;2.77;;;2.50;;
4244;SDS011;2136;48.502;9.194;2022-09-21T14:33:16;1.10;;;0.90;;
4244;SDS011;2136;48.502;9.194;2022-09-21T14:35:49;0.90;;;0.90;;
4244;SDS011;2136;48.502;9.194;2022-09-21T14:38:18;1.13;;;0.80;;
4244;SDS011;2136;48.502;9.194;2022-09-21T14:40:48;0.80;;;0.80;;
4244;SDS011;2136;48.502;9.194;2022-09-21T14:43:18;1.03;;;0.93;;
4244;SDS011;2136;48.502;9.194;2022-09-21T14:45:55;0.80;;;0.80;;
4244;SDS011;2136;48.502;9.194;2022-09-21T14:48:50;0.80;;;0.80;;
4244;SDS011;2136;48.502;9.194;2022-09-21T14:51:26;0.80;;;0.80;;
4244;SDS011;2136;48.502;9.194;2022-09-21T14:54:06;1.23;;;0.83;;
4244;SDS011;2136;48.502;9.194;2022-09-21T14:56:47;1.03;;;0.93;;
4244;SDS011;2136;48.502;9.194;2022-09-21T14:59:25;1.00;;;0.90;;
4244;SDS011;2136;48.502;9.194;2022-09-21T15:02:08;0.90;;;0.90;;
4244;SDS011;2136;48.502;9.194;2022-09-21T15:04:45;0.80;;;0.80;;
4244;SDS011;2136;48.502;9.194;2022-09-21T15:07:35;2.00;;;0.90;;
4244;SDS011;2136;48.502;9.194;2022-09-21T15:10:25;3.77;;;1.13;;
4244;SDS011;2136;48.502;9.194;2022-09-21T15:13:21;0.80;;;0.80;;
4244;SDS011;2136;48.502;9.194;2022-09-21T15:19:01;1.23;;;0.70;;
4244;SDS011;2136;48.502;9.194;2022-09-21T15:21:38;1.10;;;1.10;;
4244;SDS011;2136;48.502;9.194;2022-09-21T15:24:09;1.00;;;1.00;;
4244;SDS011;2136;48.502;9.194;2022-09-21T15:26:43;1.10;;;1.10;;
4244;SDS011;2136;48.502;9.194;2022-09-21T15:29:25;1.20;;;1.03;;
4244;SDS011;2136;48.502;9.194;2022-09-21T15:31:55;0.90;;;0.90;;
4244;SDS011;2136;48.502;9.194;2022-09-21T15:34:24;1.83;;;1.00;;
4244;SDS011;2136;48.502;9.194;2022-09-21T15:36:52;2.63;;;1.00;;
4244;SDS011;2136;48.502;9.194;2022-09-21T15:39:25;1.50;;;1.10;;
4244;SDS011;2136;48.502;9.194;2022-09-21T15:41:57;1.10;;;1.00;;
4244;SDS011;2136;48.502;9.194;2022-09-21T15:44:46;2.67;;;2.10;;
4244;SDS011;2136;48.502;9.194;2022-09-21T15:47:15;3.80;;;1.30;;
4244;SDS011;2136;48.502;9.194;2022-09-21T15:49:47;1.00;;;1.00;;
4244;SDS011;2136;48.502;9.194;2022-09-21T15:52:17;1.43;;;1.33;;
4244;SDS011;2136;48.502;9.194;2022-09-21T15:54:51;3.00;;;0.97;;
4244;SDS011;2136;48.502;9.194;2022-09-21T15:57:22;4.23;;;1.30;;
4244;SDS011;2136;48.502;9.194;2022-09-21T15:59:55;1.77;;;1.27;;
4244;SDS011;2136;48.502;9.194;2022-09-21T16:02:22;2.00;;;1.30;;
4244;SDS011;2136;48.502;9.194;2022-09-21T16:04:52;1.40;;;1.30;;
4244;SDS011;2136;48.502;9.194;2022-09-21T16:07:28;1.43;;;1.30;;
4244;SDS011;2136;48.502;9.194;2022-09-21T16:09:57;0.97;;;0.90;;
4244;SDS011;2136;48.502;9.194;2022-09-21T16:12:31;1.07;;;0.97;;
4244;SDS011;2136;48.502;9.194;2022-09-21T16:15:05;4.30;;;1.27;;